createdAt,value
2022-12-06T00:02:27.606Z,13.52
2022-12-06T00:05:33.754Z,14.37
2022-12-06T00:08:36.958Z,11.07
2022-12-06T00:11:39.727Z,15.15
2022-12-06T00:14:42.656Z,13.43
2022-12-06T00:17:46.750Z,11.95
2022-12-06T00:20:49.467Z,13.37
2022-12-06T00:23:53.556Z,13.20
2022-12-06T00:26:56.376Z,14.70
2022-12-06T00:29:59.314Z,11.35
2022-12-06T00:33:03.739Z,9.73
2022-12-06T00:36:08.394Z,10.73
2022-12-06T00:39:13.428Z,13.40
2022-12-06T00:42:16.514Z,12.03
2022-12-06T00:45:19.213Z,11.55
2022-12-06T00:48:24.182Z,10.20
2022-12-06T00:51:28.659Z,12.20
2022-12-06T00:54:31.640Z,15.23
2022-12-06T00:57:35.057Z,10.43
2022-12-06T01:00:37.773Z,14.63
2022-12-06T01:03:42.547Z,10.20
2022-12-06T01:06:45.260Z,9.63
2022-12-06T01:09:48.051Z,13.00
2022-12-06T01:12:50.652Z,13.90
2022-12-06T01:15:54.263Z,13.60
2022-12-06T01:19:01.165Z,10.07
2022-12-06T01:22:03.797Z,12.17
2022-12-06T01:25:07.263Z,10.43
2022-12-06T01:28:09.943Z,9.30
2022-12-06T01:31:13.471Z,14.07
2022-12-06T01:34:18.859Z,11.18
2022-12-06T01:37:22.013Z,10.50
2022-12-06T01:40:24.837Z,8.65
2022-12-06T01:43:35.396Z,10.90
2022-12-06T01:46:42.100Z,10.03
2022-12-06T01:49:48.568Z,7.93
2022-12-06T01:52:55.099Z,7.97
2022-12-06T01:55:58.111Z,9.20
2022-12-06T01:59:01.427Z,9.00
2022-12-06T02:02:04.472Z,8.43
2022-12-06T02:05:09.603Z,8.43
2022-12-06T02:08:13.031Z,8.60
2022-12-06T02:11:16.077Z,9.30
2022-12-06T02:14:21.319Z,9.68
2022-12-06T02:17:35.848Z,12.07
2022-12-06T02:20:43.133Z,12.83
2022-12-06T02:24:15.691Z,11.57
2022-12-06T02:27:33.528Z,10.83
2022-12-06T02:30:41.476Z,10.27
2022-12-06T02:33:48.548Z,8.83
2022-12-06T02:36:57.014Z,10.00
2022-12-06T02:40:03.920Z,9.83
2022-12-06T02:43:10.034Z,8.17
2022-12-06T02:46:15.414Z,7.73
2022-12-06T02:49:19.343Z,8.00
2022-12-06T02:52:25.335Z,12.70
2022-12-06T02:55:29.803Z,11.03
2022-12-06T02:58:35.935Z,9.53
2022-12-06T03:01:43.002Z,9.77
2022-12-06T03:04:57.288Z,9.40
2022-12-06T03:08:02.288Z,12.73
2022-12-06T03:11:05.694Z,11.53
2022-12-06T03:14:14.869Z,11.55
2022-12-06T03:17:24.419Z,11.33
2022-12-06T03:20:29.371Z,14.13
2022-12-06T03:23:35.572Z,12.87
2022-12-06T03:26:39.883Z,12.23
2022-12-06T03:29:47.770Z,13.97
2022-12-06T03:32:52.717Z,17.53
2022-12-06T03:35:56.780Z,9.77
2022-12-06T03:39:01.757Z,11.67
2022-12-06T03:42:04.714Z,11.87
2022-12-06T03:45:08.867Z,9.43
2022-12-06T03:48:14.601Z,12.53
2022-12-06T03:51:19.891Z,9.77
2022-12-06T03:54:22.617Z,13.70
2022-12-06T03:57:25.452Z,14.47
2022-12-06T04:00:28.359Z,11.57
2022-12-06T04:03:32.582Z,11.68
2022-12-06T04:06:36.152Z,14.00
2022-12-06T04:09:56.558Z,9.90
2022-12-06T04:13:01.997Z,11.33
2022-12-06T04:16:24.958Z,11.80
2022-12-06T04:19:28.343Z,11.80
2022-12-06T04:22:48.976Z,10.73
2022-12-06T04:25:51.971Z,12.90
2022-12-06T04:29:13.292Z,10.57
2022-12-06T04:32:33.429Z,11.70
2022-12-06T04:35:54.875Z,11.40
2022-12-06T04:38:57.628Z,11.60
2022-12-06T04:42:19.582Z,12.33
2022-12-06T04:45:22.287Z,13.63
2022-12-06T04:48:25.399Z,10.20
2022-12-06T04:51:30.093Z,10.95
2022-12-06T04:54:32.818Z,11.33
2022-12-06T04:57:35.570Z,13.80
2022-12-06T05:00:38.314Z,15.53
2022-12-06T05:03:44.140Z,12.57
2022-12-06T05:06:48.753Z,11.77
2022-12-06T05:09:51.301Z,12.43
2022-12-06T05:12:53.880Z,9.80
2022-12-06T05:15:57.883Z,11.57
2022-12-06T05:19:00.506Z,12.30
2022-12-06T05:22:05.118Z,11.00
2022-12-06T05:25:08.235Z,12.73
2022-12-06T05:28:11.231Z,9.35
2022-12-06T05:31:14.297Z,12.15
2022-12-06T05:34:17.032Z,13.75
2022-12-06T05:37:21.110Z,13.73
2022-12-06T05:40:24.159Z,13.07
2022-12-06T05:43:27.085Z,11.10
2022-12-06T05:46:29.853Z,12.25
2022-12-06T05:49:32.932Z,12.27
2022-12-06T05:52:37.021Z,13.38
2022-12-06T05:55:39.923Z,12.57
2022-12-06T05:58:42.632Z,11.18
2022-12-06T06:01:45.478Z,14.47
2022-12-06T06:04:48.599Z,15.68
2022-12-06T06:07:52.888Z,12.23
2022-12-06T06:10:55.938Z,9.63
2022-12-06T06:13:59.463Z,7.93
2022-12-06T06:17:02.152Z,7.55
2022-12-06T06:20:06.572Z,6.18
2022-12-06T06:23:10.715Z,12.53
2022-12-06T06:26:13.907Z,10.43
2022-12-06T06:29:16.564Z,11.32
2022-12-06T06:32:19.423Z,13.20
2022-12-06T06:35:22.237Z,11.93
2022-12-06T06:38:26.195Z,15.17
2022-12-06T06:41:28.943Z,14.03
2022-12-06T06:44:32.827Z,15.77
2022-12-06T06:47:36.557Z,18.10
2022-12-06T06:50:39.159Z,17.10
2022-12-06T06:53:43.218Z,18.50
2022-12-06T06:56:45.873Z,14.33
2022-12-06T06:59:48.734Z,19.23
2022-12-06T07:02:51.658Z,20.92
2022-12-06T07:05:56.797Z,16.10
2022-12-06T07:09:00.902Z,16.17
2022-12-06T07:12:03.812Z,21.30
2022-12-06T07:15:07.700Z,16.40
2022-12-06T07:18:10.628Z,19.77
2022-12-06T07:21:14.938Z,16.23
2022-12-06T07:24:18.997Z,12.57
2022-12-06T07:27:21.763Z,12.87
2022-12-06T07:30:27.504Z,14.48
2022-12-06T07:33:30.518Z,13.20
2022-12-06T07:36:33.811Z,14.17
2022-12-06T07:39:38.330Z,10.73
2022-12-06T07:42:58.752Z,12.60
2022-12-06T07:46:01.442Z,15.13
2022-12-06T07:49:04.289Z,19.90
2022-12-06T07:52:07.116Z,17.07
2022-12-06T07:55:12.693Z,15.35
2022-12-06T07:58:15.604Z,8.57
2022-12-06T08:01:18.541Z,11.25
2022-12-06T08:04:22.073Z,10.38
2022-12-06T08:07:25.330Z,9.57
2022-12-06T08:10:29.411Z,9.60
2022-12-06T08:13:32.419Z,8.50
2022-12-06T08:16:35.969Z,12.13
2022-12-06T08:19:39.353Z,8.25
2022-12-06T08:22:42.152Z,8.85
2022-12-06T08:25:46.427Z,6.40
2022-12-06T08:28:49.422Z,9.00
2022-12-06T08:31:52.697Z,9.10
2022-12-06T08:34:55.828Z,6.75
2022-12-06T08:37:58.494Z,6.55
2022-12-06T08:41:02.867Z,7.10
2022-12-06T08:44:06.594Z,5.80
2022-12-06T08:50:12.701Z,8.10
2022-12-06T08:53:15.724Z,6.15
2022-12-06T08:56:19.909Z,9.70
2022-12-06T08:59:23.296Z,6.17
2022-12-06T09:02:26.038Z,12.00
2022-12-06T09:05:29.028Z,6.33
2022-12-06T09:08:31.684Z,7.25
2022-12-06T09:11:35.803Z,10.10
2022-12-06T09:14:38.680Z,7.60
2022-12-06T09:17:42.178Z,7.97
2022-12-06T09:20:44.788Z,7.35
2022-12-06T09:23:47.698Z,6.67
2022-12-06T09:26:51.867Z,6.43
2022-12-06T09:29:55.310Z,10.37
2022-12-06T09:32:58.319Z,10.15
2022-12-06T09:36:04.045Z,8.98
2022-12-06T09:39:09.617Z,7.90
2022-12-06T09:42:34.695Z,9.33
2022-12-06T09:45:49.626Z,11.73
2022-12-06T09:49:20.486Z,10.87
2022-12-06T09:52:40.694Z,12.20
2022-12-06T09:55:52.019Z,9.20
2022-12-06T09:59:07.458Z,8.37
2022-12-06T10:02:25.285Z,12.10
2022-12-06T10:05:44.428Z,10.83
2022-12-06T10:09:01.841Z,11.30
2022-12-06T10:12:13.413Z,11.83
2022-12-06T10:15:27.978Z,15.63
2022-12-06T10:18:46.432Z,12.47
2022-12-06T10:21:56.604Z,14.93
2022-12-06T10:25:05.632Z,21.40
2022-12-06T10:28:13.108Z,29.27
2022-12-06T10:31:29.373Z,22.20
2022-12-06T10:34:47.436Z,15.93
2022-12-06T10:38:07.911Z,15.70
2022-12-06T10:41:16.306Z,12.33
2022-12-06T10:44:24.131Z,14.73
2022-12-06T10:47:31.820Z,14.43
2022-12-06T10:50:37.414Z,17.47
2022-12-06T10:53:44.698Z,13.97
2022-12-06T10:56:50.743Z,13.37
2022-12-06T11:00:03.105Z,11.90
2022-12-06T11:03:12.239Z,11.63
2022-12-06T11:06:18.615Z,14.70
2022-12-06T11:09:27.087Z,11.70
2022-12-06T11:12:32.105Z,10.83
2022-12-06T11:15:37.758Z,14.90
2022-12-06T11:18:42.896Z,12.73
2022-12-06T11:21:51.352Z,13.43
2022-12-06T11:24:57.968Z,13.40
2022-12-06T11:28:06.227Z,11.70
2022-12-06T11:31:19.890Z,11.97
2022-12-06T11:34:29.000Z,11.15
2022-12-06T11:37:32.893Z,11.63
2022-12-06T11:40:38.874Z,10.47
2022-12-06T11:43:41.800Z,9.60
2022-12-06T11:46:44.790Z,20.05
2022-12-06T11:49:51.083Z,8.57
2022-12-06T11:52:58.256Z,7.80
2022-12-06T11:56:05.085Z,7.80
2022-12-06T11:59:24.670Z,8.57
2022-12-06T12:02:32.853Z,10.67
2022-12-06T12:05:39.907Z,7.67
2022-12-06T12:08:52.012Z,6.90
2022-12-06T12:11:56.357Z,6.13
2022-12-06T12:15:00.294Z,5.00
2022-12-06T12:18:04.649Z,6.60
2022-12-06T12:21:09.168Z,6.43
2022-12-06T12:28:26.134Z,9.40
2022-12-06T12:31:29.026Z,6.50
2022-12-06T12:34:32.482Z,6.55
2022-12-06T12:37:39.089Z,8.55
2022-12-06T12:40:43.721Z,5.60
2022-12-06T12:44:13.518Z,7.93
2022-12-06T12:47:20.004Z,5.53
2022-12-06T12:50:23.912Z,4.67
2022-12-06T12:56:37.090Z,7.73
2022-12-06T12:59:41.516Z,4.90
2022-12-06T13:02:45.222Z,5.40
2022-12-06T13:08:53.288Z,6.05
2022-12-06T13:11:59.488Z,6.90
2022-12-06T13:15:07.292Z,5.33
2022-12-06T13:18:14.322Z,4.90
2022-12-06T13:21:21.800Z,4.30
2022-12-06T13:24:30.186Z,5.13
2022-12-06T13:27:36.350Z,5.57
2022-12-06T13:30:41.148Z,6.90
2022-12-06T13:33:47.460Z,5.77
2022-12-06T13:36:52.214Z,8.07
2022-12-06T13:39:56.882Z,8.27
2022-12-06T13:43:00.346Z,7.73
2022-12-06T13:46:22.938Z,4.00
2022-12-06T13:49:27.070Z,5.33
2022-12-06T13:53:03.533Z,5.47
2022-12-06T13:56:29.041Z,4.37
2022-12-06T13:59:38.750Z,5.80
2022-12-06T14:02:46.520Z,6.87
2022-12-06T14:06:07.490Z,5.27
2022-12-06T14:09:15.258Z,5.10
2022-12-06T14:12:22.662Z,4.50
2022-12-06T14:15:25.394Z,7.43
2022-12-06T14:18:29.934Z,6.03
2022-12-06T14:21:37.514Z,6.77
2022-12-06T14:24:42.118Z,6.00
2022-12-06T14:27:48.440Z,3.80
2022-12-06T14:30:51.519Z,5.40
2022-12-06T14:33:55.466Z,5.43
2022-12-06T14:36:58.777Z,5.70
2022-12-06T14:40:22.757Z,3.58
2022-12-06T14:43:27.239Z,4.50
2022-12-06T14:46:30.137Z,5.83
2022-12-06T14:49:53.068Z,3.53
2022-12-06T14:52:58.416Z,6.40
2022-12-06T14:56:03.537Z,5.40
2022-12-06T14:59:12.818Z,5.07
2022-12-06T15:02:23.653Z,6.60
2022-12-06T15:05:34.512Z,4.53
2022-12-06T15:08:38.779Z,5.17
2022-12-06T15:12:00.337Z,6.40
2022-12-06T15:15:04.761Z,8.00
2022-12-06T15:18:14.207Z,4.30
2022-12-06T15:21:18.874Z,6.50
2022-12-06T15:24:23.774Z,6.17
2022-12-06T15:27:27.919Z,9.67
2022-12-06T15:30:31.928Z,5.13
2022-12-06T15:33:34.983Z,5.00
2022-12-06T15:36:37.780Z,6.50
2022-12-06T15:39:41.283Z,8.50
2022-12-06T15:42:44.047Z,7.60
2022-12-06T15:45:48.378Z,8.83
2022-12-06T15:48:52.155Z,7.43
2022-12-06T15:51:54.901Z,8.93
2022-12-06T15:54:57.721Z,8.20
2022-12-06T15:58:00.388Z,5.57
2022-12-06T16:01:04.361Z,6.37
2022-12-06T16:04:07.913Z,7.83
2022-12-06T16:07:10.746Z,7.47
2022-12-06T16:10:16.622Z,11.02
2022-12-06T16:13:23.737Z,7.70
2022-12-06T16:16:27.868Z,8.88
2022-12-06T16:19:50.681Z,13.17
2022-12-06T16:23:16.223Z,7.80
2022-12-06T16:26:19.208Z,8.20
2022-12-06T16:29:25.023Z,7.20
2022-12-06T16:32:29.304Z,5.63
2022-12-06T16:38:35.286Z,9.67
2022-12-06T16:41:37.902Z,5.43
2022-12-06T16:44:51.287Z,5.57
2022-12-06T16:47:55.704Z,5.80
2022-12-06T16:50:58.662Z,5.87
2022-12-06T16:54:02.411Z,5.55
2022-12-06T16:57:05.404Z,5.83
2022-12-06T17:00:09.801Z,5.63
2022-12-06T17:03:14.167Z,5.73
2022-12-06T17:06:17.070Z,5.03
2022-12-06T17:09:20.949Z,6.88
2022-12-06T17:12:23.940Z,5.67
2022-12-06T17:15:26.619Z,6.10
2022-12-06T17:18:30.686Z,7.37
2022-12-06T17:21:34.170Z,7.47
2022-12-06T17:24:36.972Z,5.53
2022-12-06T17:27:40.174Z,5.27
2022-12-06T17:30:47.777Z,6.22
2022-12-06T17:33:55.220Z,6.87
2022-12-06T17:36:58.888Z,7.17
2022-12-06T17:40:01.565Z,6.13
2022-12-06T17:43:05.521Z,5.87
2022-12-06T17:46:08.896Z,5.80
2022-12-06T17:49:15.227Z,6.80
2022-12-06T17:52:18.546Z,7.27
2022-12-06T17:55:21.569Z,6.30
2022-12-06T17:58:24.733Z,4.65
2022-12-06T18:01:50.852Z,6.95
2022-12-06T18:07:56.800Z,6.53
2022-12-06T18:10:59.816Z,6.65
2022-12-06T18:14:03.891Z,7.78
2022-12-06T18:17:07.699Z,6.60
2022-12-06T18:20:15.682Z,6.77
2022-12-06T18:23:18.877Z,5.93
2022-12-06T18:26:23.074Z,7.85
2022-12-06T18:29:26.790Z,6.87
2022-12-06T18:32:29.634Z,7.25
2022-12-06T18:35:36.189Z,6.82
2022-12-06T18:38:39.303Z,6.90
2022-12-06T18:41:42.750Z,6.43
2022-12-06T18:44:45.943Z,6.97
2022-12-06T18:47:49.628Z,9.68
2022-12-06T18:50:54.185Z,7.28
2022-12-06T18:53:58.654Z,6.93
2022-12-06T18:57:01.736Z,7.80
2022-12-06T19:00:05.523Z,5.32
2022-12-06T19:03:08.598Z,8.50
2022-12-06T19:06:14.779Z,5.65
2022-12-06T19:09:17.480Z,7.67
2022-12-06T19:12:20.362Z,6.23
2022-12-06T19:15:23.199Z,6.10
2022-12-06T19:18:25.736Z,6.87
2022-12-06T19:21:32.191Z,8.47
2022-12-06T19:24:34.864Z,8.80
2022-12-06T19:27:37.453Z,8.87
2022-12-06T19:30:40.291Z,8.20
2022-12-06T19:33:44.889Z,6.43
2022-12-06T19:36:50.000Z,11.53
2022-12-06T19:39:52.894Z,8.40
2022-12-06T19:43:12.918Z,8.27
2022-12-06T19:46:17.118Z,8.73
2022-12-06T19:49:22.482Z,7.27
2022-12-06T19:52:30.829Z,7.67
2022-12-06T19:55:33.829Z,9.80
2022-12-06T19:58:36.693Z,8.70
2022-12-06T20:01:40.220Z,8.45
2022-12-06T20:04:44.069Z,7.93
2022-12-06T20:10:50.629Z,9.63
2022-12-06T20:13:53.262Z,9.93
2022-12-06T20:16:56.085Z,9.77
2022-12-06T20:20:01.579Z,11.23
2022-12-06T20:23:10.268Z,9.90
2022-12-06T20:26:17.046Z,8.63
2022-12-06T20:29:19.829Z,9.87
2022-12-06T20:32:22.363Z,7.22
2022-12-06T20:35:26.860Z,7.70
2022-12-06T20:38:31.125Z,8.10
2022-12-06T20:41:34.510Z,6.90
2022-12-06T20:44:37.463Z,8.82
2022-12-06T20:47:40.374Z,7.60
2022-12-06T20:50:43.370Z,6.18
2022-12-06T20:53:48.400Z,7.57
2022-12-06T20:56:53.284Z,11.00
2022-12-06T20:59:56.423Z,10.10
2022-12-06T21:02:59.335Z,5.82
2022-12-06T21:06:03.780Z,5.43
2022-12-06T21:09:08.381Z,8.80
2022-12-06T21:12:11.135Z,5.93
2022-12-06T21:15:14.097Z,7.77
2022-12-06T21:18:19.821Z,6.18
2022-12-06T21:21:23.938Z,8.80
2022-12-06T21:24:28.127Z,10.87
2022-12-06T21:27:30.914Z,6.20
2022-12-06T21:30:33.789Z,7.00
2022-12-06T21:33:36.619Z,7.37
2022-12-06T21:36:39.419Z,9.23
2022-12-06T21:39:46.334Z,8.50
2022-12-06T21:42:49.131Z,5.03
2022-12-06T21:45:51.825Z,7.90
2022-12-06T21:48:56.264Z,10.03
2022-12-06T21:52:04.571Z,6.90
2022-12-06T21:55:12.930Z,8.10
2022-12-06T21:58:15.634Z,6.57
2022-12-06T22:01:21.879Z,5.90
2022-12-06T22:04:24.873Z,7.00
2022-12-06T22:07:27.666Z,9.88
2022-12-06T22:10:31.716Z,9.20
2022-12-06T22:13:34.627Z,6.63
2022-12-06T22:16:37.320Z,6.57
2022-12-06T22:19:39.970Z,8.40
2022-12-06T22:22:42.853Z,7.97
2022-12-06T22:25:47.403Z,8.07
2022-12-06T22:28:50.518Z,8.93
2022-12-06T22:31:53.440Z,9.23
2022-12-06T22:34:56.227Z,6.13
2022-12-06T22:37:59.580Z,8.60
2022-12-06T22:41:04.191Z,6.28
2022-12-06T22:44:08.489Z,8.47
2022-12-06T22:47:11.226Z,8.37
2022-12-06T22:50:14.505Z,11.33
2022-12-06T22:53:17.989Z,11.25
2022-12-06T22:56:22.346Z,9.57
2022-12-06T22:59:25.187Z,8.67
2022-12-06T23:02:28.278Z,9.30
2022-12-06T23:05:30.854Z,8.15
2022-12-06T23:08:34.233Z,6.70
2022-12-06T23:11:38.603Z,7.57
2022-12-06T23:14:41.353Z,8.90
2022-12-06T23:17:44.044Z,11.60
2022-12-06T23:20:46.610Z,7.03
2022-12-06T23:23:52.065Z,11.90
2022-12-06T23:26:58.171Z,7.97
2022-12-06T23:30:01.521Z,10.50
2022-12-06T23:33:04.532Z,9.02
2022-12-06T23:36:09.425Z,7.83
2022-12-06T23:39:13.639Z,8.60
2022-12-06T23:42:17.757Z,12.10
2022-12-06T23:45:20.818Z,9.43
2022-12-06T23:48:23.751Z,10.77
2022-12-06T23:51:27.922Z,12.73
2022-12-06T23:54:30.666Z,8.70
2022-12-06T23:57:34.671Z,8.50
